sensor_id;sensor_type;location;lat;lon;timestamp;P1;durP1;ratioP1;P2;durP2;ratioP2
84840;SDS011;75088;53.114;18.040;2024-03-08T00:01:02;24.10;;;12.90;;
84840;SDS011;75088;53.114;18.040;2024-03-08T00:02:20;26.70;;;13.40;;
84840;SDS011;75088;53.114;18.040;2024-03-08T00:03:26;26.80;;;13.70;;
84840;SDS011;75088;53.114;18.040;2024-03-08T00:04:35;25.80;;;13.30;;
84840;SDS011;75088;53.114;18.040;2024-03-08T00:05:42;24.40;;;14.10;;
84840;SDS011;75088;53.114;18.040;2024-03-08T00:06:49;25.60;;;14.20;;
84840;SDS011;75088;53.114;18.040;2024-03-08T00:07:56;26.80;;;14.70;;
84840;SDS011;75088;53.114;18.040;2024-03-08T00:09:04;31.00;;;15.80;;
84840;SDS011;75088;53.114;18.040;2024-03-08T00:10:12;32.10;;;16.00;;
84840;SDS011;75088;53.114;18.040;2024-03-08T00:11:21;28.60;;;15.30;;
84840;SDS011;75088;53.114;18.040;2024-03-08T00:12:30;27.30;;;16.40;;
84840;SDS011;75088;53.114;18.040;2024-03-08T00:13:36;28.90;;;15.40;;
84840;SDS011;75088;53.114;18.040;2024-03-08T00:14:43;29.90;;;14.90;;
84840;SDS011;75088;53.114;18.040;2024-03-08T00:15:53;28.50;;;14.60;;
84840;SDS011;75088;53.114;18.040;2024-03-08T00:17:01;32.90;;;15.00;;
84840;SDS011;75088;53.114;18.040;2024-03-08T00:18:08;30.10;;;15.30;;
84840;SDS011;75088;53.114;18.040;2024-03-08T00:19:17;32.30;;;15.70;;
84840;SDS011;75088;53.114;18.040;2024-03-08T00:20:24;33.40;;;15.40;;
84840;SDS011;75088;53.114;18.040;2024-03-08T00:21:32;33.50;;;15.30;;
84840;SDS011;75088;53.114;18.040;2024-03-08T00:22:39;31.60;;;15.50;;
84840;SDS011;75088;53.114;18.040;2024-03-08T00:23:47;29.70;;;15.20;;
84840;SDS011;75088;53.114;18.040;2024-03-08T00:24:54;26.60;;;14.40;;
84840;SDS011;75088;53.114;18.040;2024-03-08T00:26:01;31.40;;;15.80;;
84840;SDS011;75088;53.114;18.040;2024-03-08T00:27:08;32.00;;;15.10;;
84840;SDS011;75088;53.114;18.040;2024-03-08T00:28:16;31.30;;;15.10;;
84840;SDS011;75088;53.114;18.040;2024-03-08T00:29:23;30.20;;;14.30;;
84840;SDS011;75088;53.114;18.040;2024-03-08T00:30:30;30.70;;;16.80;;
84840;SDS011;75088;53.114;18.040;2024-03-08T00:31:37;30.40;;;14.90;;
84840;SDS011;75088;53.114;18.040;2024-03-08T00:32:44;28.10;;;14.60;;
84840;SDS011;75088;53.114;18.040;2024-03-08T00:33:54;31.50;;;17.10;;
84840;SDS011;75088;53.114;18.040;2024-03-08T00:35:00;28.70;;;14.30;;
84840;SDS011;75088;53.114;18.040;2024-03-08T00:36:08;31.30;;;15.60;;
84840;SDS011;75088;53.114;18.040;2024-03-08T00:37:14;28.50;;;14.70;;
84840;SDS011;75088;53.114;18.040;2024-03-08T00:38:21;29.30;;;14.20;;
84840;SDS011;75088;53.114;18.040;2024-03-08T00:39:28;27.00;;;14.40;;
84840;SDS011;75088;53.114;18.040;2024-03-08T00:40:35;25.40;;;13.50;;
84840;SDS011;75088;53.114;18.040;2024-03-08T00:41:42;26.90;;;14.20;;
84840;SDS011;75088;53.114;18.040;2024-03-08T00:42:49;28.10;;;15.30;;
84840;SDS011;75088;53.114;18.040;2024-03-08T00:43:57;27.20;;;14.30;;
84840;SDS011;75088;53.114;18.040;2024-03-08T00:45:05;29.30;;;15.40;;
84840;SDS011;75088;53.114;18.040;2024-03-08T00:46:14;26.10;;;14.60;;
84840;SDS011;75088;53.114;18.040;2024-03-08T00:47:21;28.70;;;14.70;;
84840;SDS011;75088;53.114;18.040;2024-03-08T00:48:28;30.00;;;16.00;;
84840;SDS011;75088;53.114;18.040;2024-03-08T00:49:36;28.90;;;14.40;;
84840;SDS011;75088;53.114;18.040;2024-03-08T00:50:43;27.90;;;14.20;;
84840;SDS011;75088;53.114;18.040;2024-03-08T00:51:50;29.30;;;16.60;;
84840;SDS011;75088;53.114;18.040;2024-03-08T00:52:57;29.40;;;16.70;;
84840;SDS011;75088;53.114;18.040;2024-03-08T00:54:04;29.20;;;15.40;;
84840;SDS011;75088;53.114;18.040;2024-03-08T00:55:11;31.80;;;15.50;;
84840;SDS011;75088;53.114;18.040;2024-03-08T00:56:20;30.10;;;15.60;;
84840;SDS011;75088;53.114;18.040;2024-03-08T00:57:28;31.80;;;15.70;;
84840;SDS011;75088;53.114;18.040;2024-03-08T00:58:35;33.00;;;17.40;;
84840;SDS011;75088;53.114;18.040;2024-03-08T00:59:42;29.10;;;15.40;;
84840;SDS011;75088;53.114;18.040;2024-03-08T01:00:50;30.80;;;15.10;;
84840;SDS011;75088;53.114;18.040;2024-03-08T01:01:57;27.40;;;14.80;;
84840;SDS011;75088;53.114;18.040;2024-03-08T01:03:04;28.20;;;15.90;;
84840;SDS011;75088;53.114;18.040;2024-03-08T01:04:11;25.90;;;16.10;;
84840;SDS011;75088;53.114;18.040;2024-03-08T01:05:18;28.90;;;14.60;;
84840;SDS011;75088;53.114;18.040;2024-03-08T01:06:25;28.30;;;14.80;;
84840;SDS011;75088;53.114;18.040;2024-03-08T01:07:32;29.30;;;15.30;;
84840;SDS011;75088;53.114;18.040;2024-03-08T01:08:39;29.70;;;15.80;;
84840;SDS011;75088;53.114;18.040;2024-03-08T01:09:47;27.40;;;16.70;;
84840;SDS011;75088;53.114;18.040;2024-03-08T01:10:53;28.30;;;15.10;;
84840;SDS011;75088;53.114;18.040;2024-03-08T01:12:01;27.00;;;14.80;;
84840;SDS011;75088;53.114;18.040;2024-03-08T01:13:08;28.90;;;14.70;;
84840;SDS011;75088;53.114;18.040;2024-03-08T01:14:15;32.40;;;15.20;;
84840;SDS011;75088;53.114;18.040;2024-03-08T01:15:22;30.10;;;16.50;;
84840;SDS011;75088;53.114;18.040;2024-03-08T01:16:29;30.00;;;15.30;;
84840;SDS011;75088;53.114;18.040;2024-03-08T01:17:37;26.60;;;15.90;;
84840;SDS011;75088;53.114;18.040;2024-03-08T01:18:44;28.50;;;13.70;;
84840;SDS011;75088;53.114;18.040;2024-03-08T01:19:54;27.00;;;15.40;;
84840;SDS011;75088;53.114;18.040;2024-03-08T01:21:01;25.30;;;15.10;;
84840;SDS011;75088;53.114;18.040;2024-03-08T01:22:08;28.10;;;14.90;;
84840;SDS011;75088;53.114;18.040;2024-03-08T01:23:15;27.50;;;14.80;;
84840;SDS011;75088;53.114;18.040;2024-03-08T01:24:25;26.20;;;14.50;;
84840;SDS011;75088;53.114;18.040;2024-03-08T01:25:31;28.30;;;15.20;;
84840;SDS011;75088;53.114;18.040;2024-03-08T01:26:38;28.60;;;15.50;;
84840;SDS011;75088;53.114;18.040;2024-03-08T01:27:45;27.80;;;14.40;;
84840;SDS011;75088;53.114;18.040;2024-03-08T01:28:52;32.30;;;15.00;;
84840;SDS011;75088;53.114;18.040;2024-03-08T01:29:59;26.80;;;14.20;;
84840;SDS011;75088;53.114;18.040;2024-03-08T01:31:08;24.50;;;14.00;;
84840;SDS011;75088;53.114;18.040;2024-03-08T01:32:16;27.10;;;14.10;;
84840;SDS011;75088;53.114;18.040;2024-03-08T01:33:24;25.20;;;14.10;;
84840;SDS011;75088;53.114;18.040;2024-03-08T01:34:31;29.10;;;14.40;;
84840;SDS011;75088;53.114;18.040;2024-03-08T01:35:38;25.30;;;13.90;;
84840;SDS011;75088;53.114;18.040;2024-03-08T01:36:45;27.60;;;15.00;;
84840;SDS011;75088;53.114;18.040;2024-03-08T01:37:55;27.20;;;14.30;;
84840;SDS011;75088;53.114;18.040;2024-03-08T01:39:01;27.10;;;14.60;;
84840;SDS011;75088;53.114;18.040;2024-03-08T01:40:12;29.80;;;14.90;;
84840;SDS011;75088;53.114;18.040;2024-03-08T01:41:21;25.40;;;14.30;;
84840;SDS011;75088;53.114;18.040;2024-03-08T01:42:28;31.20;;;15.00;;
84840;SDS011;75088;53.114;18.040;2024-03-08T01:43:35;27.00;;;14.40;;
84840;SDS011;75088;53.114;18.040;2024-03-08T01:44:43;28.00;;;14.60;;
84840;SDS011;75088;53.114;18.040;2024-03-08T01:45:49;26.90;;;13.90;;
84840;SDS011;75088;53.114;18.040;2024-03-08T01:46:56;28.70;;;14.40;;
84840;SDS011;75088;53.114;18.040;2024-03-08T01:48:07;26.90;;;14.00;;
84840;SDS011;75088;53.114;18.040;2024-03-08T01:49:14;27.60;;;14.70;;
84840;SDS011;75088;53.114;18.040;2024-03-08T01:50:22;27.80;;;14.60;;
84840;SDS011;75088;53.114;18.040;2024-03-08T01:51:29;25.30;;;14.00;;
84840;SDS011;75088;53.114;18.040;2024-03-08T01:52:36;28.30;;;14.60;;
84840;SDS011;75088;53.114;18.040;2024-03-08T01:53:44;27.10;;;13.80;;
84840;SDS011;75088;53.114;18.040;2024-03-08T01:54:53;26.50;;;14.90;;
84840;SDS011;75088;53.114;18.040;2024-03-08T01:56:00;26.20;;;13.60;;
84840;SDS011;75088;53.114;18.040;2024-03-08T01:57:08;26.00;;;14.20;;
84840;SDS011;75088;53.114;18.040;2024-03-08T01:58:15;25.50;;;15.00;;
84840;SDS011;75088;53.114;18.040;2024-03-08T01:59:26;26.90;;;14.30;;
84840;SDS011;75088;53.114;18.040;2024-03-08T02:00:33;29.10;;;15.40;;
84840;SDS011;75088;53.114;18.040;2024-03-08T02:01:42;26.80;;;14.30;;
84840;SDS011;75088;53.114;18.040;2024-03-08T02:02:49;27.30;;;14.40;;
84840;SDS011;75088;53.114;18.040;2024-03-08T02:03:59;30.00;;;14.90;;
84840;SDS011;75088;53.114;18.040;2024-03-08T02:05:06;31.20;;;16.00;;
84840;SDS011;75088;53.114;18.040;2024-03-08T02:06:14;29.90;;;15.30;;
84840;SDS011;75088;53.114;18.040;2024-03-08T02:07:21;31.20;;;15.50;;
84840;SDS011;75088;53.114;18.040;2024-03-08T02:08:28;29.90;;;15.40;;
84840;SDS011;75088;53.114;18.040;2024-03-08T02:09:35;31.80;;;15.70;;
84840;SDS011;75088;53.114;18.040;2024-03-08T02:10:43;29.00;;;16.30;;
84840;SDS011;75088;53.114;18.040;2024-03-08T02:11:51;31.60;;;16.50;;
84840;SDS011;75088;53.114;18.040;2024-03-08T02:12:59;33.80;;;15.90;;
84840;SDS011;75088;53.114;18.040;2024-03-08T02:14:08;32.50;;;16.40;;
84840;SDS011;75088;53.114;18.040;2024-03-08T02:15:15;29.70;;;15.70;;
84840;SDS011;75088;53.114;18.040;2024-03-08T02:16:25;34.30;;;17.00;;
84840;SDS011;75088;53.114;18.040;2024-03-08T02:17:32;30.10;;;17.80;;
84840;SDS011;75088;53.114;18.040;2024-03-08T02:18:39;32.00;;;16.40;;
84840;SDS011;75088;53.114;18.040;2024-03-08T02:19:46;30.50;;;15.70;;
84840;SDS011;75088;53.114;18.040;2024-03-08T02:20:54;31.10;;;16.30;;
84840;SDS011;75088;53.114;18.040;2024-03-08T02:22:02;32.10;;;15.60;;
84840;SDS011;75088;53.114;18.040;2024-03-08T02:23:10;34.20;;;17.80;;
84840;SDS011;75088;53.114;18.040;2024-03-08T02:24:18;30.30;;;15.30;;
84840;SDS011;75088;53.114;18.040;2024-03-08T02:25:25;31.40;;;15.50;;
84840;SDS011;75088;53.114;18.040;2024-03-08T02:26:32;31.20;;;16.00;;
84840;SDS011;75088;53.114;18.040;2024-03-08T02:27:38;33.20;;;17.40;;
84840;SDS011;75088;53.114;18.040;2024-03-08T02:28:45;28.80;;;16.60;;
84840;SDS011;75088;53.114;18.040;2024-03-08T02:29:53;28.40;;;15.80;;
84840;SDS011;75088;53.114;18.040;2024-03-08T02:31:01;31.40;;;16.60;;
84840;SDS011;75088;53.114;18.040;2024-03-08T02:32:12;28.30;;;17.00;;
84840;SDS011;75088;53.114;18.040;2024-03-08T02:33:20;29.20;;;17.40;;
84840;SDS011;75088;53.114;18.040;2024-03-08T02:34:27;28.90;;;15.90;;
84840;SDS011;75088;53.114;18.040;2024-03-08T02:35:35;29.70;;;17.90;;
84840;SDS011;75088;53.114;18.040;2024-03-08T02:36:42;29.80;;;15.30;;
84840;SDS011;75088;53.114;18.040;2024-03-08T02:37:49;30.30;;;17.90;;
84840;SDS011;75088;53.114;18.040;2024-03-08T02:38:56;33.00;;;16.30;;
84840;SDS011;75088;53.114;18.040;2024-03-08T02:40:03;31.10;;;16.00;;
84840;SDS011;75088;53.114;18.040;2024-03-08T02:41:11;31.50;;;17.00;;
84840;SDS011;75088;53.114;18.040;2024-03-08T02:42:18;29.90;;;15.50;;
84840;SDS011;75088;53.114;18.040;2024-03-08T02:43:25;32.20;;;15.70;;
84840;SDS011;75088;53.114;18.040;2024-03-08T02:44:32;30.00;;;15.50;;
84840;SDS011;75088;53.114;18.040;2024-03-08T02:45:39;33.50;;;17.60;;
84840;SDS011;75088;53.114;18.040;2024-03-08T02:46:48;27.80;;;15.30;;
84840;SDS011;75088;53.114;18.040;2024-03-08T02:47:55;29.50;;;16.30;;
84840;SDS011;75088;53.114;18.040;2024-03-08T02:49:02;29.00;;;15.40;;
84840;SDS011;75088;53.114;18.040;2024-03-08T02:50:10;29.90;;;16.40;;
84840;SDS011;75088;53.114;18.040;2024-03-08T02:51:20;28.00;;;15.00;;
84840;SDS011;75088;53.114;18.040;2024-03-08T02:52:26;31.80;;;15.60;;
84840;SDS011;75088;53.114;18.040;2024-03-08T02:53:34;28.50;;;16.00;;
84840;SDS011;75088;53.114;18.040;2024-03-08T02:54:41;27.50;;;17.20;;
84840;SDS011;75088;53.114;18.040;2024-03-08T02:55:50;30.30;;;17.00;;
84840;SDS011;75088;53.114;18.040;2024-03-08T02:56:57;30.00;;;15.90;;
84840;SDS011;75088;53.114;18.040;2024-03-08T02:58:04;26.10;;;13.90;;
84840;SDS011;75088;53.114;18.040;2024-03-08T02:59:14;30.30;;;17.60;;
84840;SDS011;75088;53.114;18.040;2024-03-08T03:00:22;28.00;;;15.30;;
84840;SDS011;75088;53.114;18.040;2024-03-08T03:01:29;32.80;;;17.60;;
84840;SDS011;75088;53.114;18.040;2024-03-08T03:02:36;29.00;;;15.60;;
84840;SDS011;75088;53.114;18.040;2024-03-08T03:03:43;31.40;;;15.20;;
84840;SDS011;75088;53.114;18.040;2024-03-08T03:04:51;29.30;;;14.90;;
84840;SDS011;75088;53.114;18.040;2024-03-08T03:06:00;30.40;;;16.40;;
84840;SDS011;75088;53.114;18.040;2024-03-08T03:07:07;27.50;;;15.20;;
84840;SDS011;75088;53.114;18.040;2024-03-08T03:08:13;28.60;;;15.00;;
84840;SDS011;75088;53.114;18.040;2024-03-08T03:09:21;28.80;;;15.60;;
84840;SDS011;75088;53.114;18.040;2024-03-08T03:10:31;27.00;;;14.70;;
84840;SDS011;75088;53.114;18.040;2024-03-08T03:11:38;28.20;;;15.10;;
84840;SDS011;75088;53.114;18.040;2024-03-08T03:12:45;28.00;;;15.60;;
84840;SDS011;75088;53.114;18.040;2024-03-08T03:13:55;26.00;;;15.20;;
84840;SDS011;75088;53.114;18.040;2024-03-08T03:15:02;28.20;;;15.30;;
84840;SDS011;75088;53.114;18.040;2024-03-08T03:16:10;28.60;;;15.80;;
84840;SDS011;75088;53.114;18.040;2024-03-08T03:17:21;31.90;;;15.10;;
84840;SDS011;75088;53.114;18.040;2024-03-08T03:18:28;29.40;;;16.50;;
84840;SDS011;75088;53.114;18.040;2024-03-08T03:19:36;29.80;;;15.90;;
84840;SDS011;75088;53.114;18.040;2024-03-08T03:20:46;29.90;;;15.70;;
84840;SDS011;75088;53.114;18.040;2024-03-08T03:21:53;29.80;;;17.50;;
84840;SDS011;75088;53.114;18.040;2024-03-08T03:23:01;26.20;;;14.60;;
84840;SDS011;75088;53.114;18.040;2024-03-08T03:24:08;29.30;;;15.90;;
84840;SDS011;75088;53.114;18.040;2024-03-08T03:25:15;28.50;;;16.60;;
84840;SDS011;75088;53.114;18.040;2024-03-08T03:26:27;30.90;;;17.00;;
84840;SDS011;75088;53.114;18.040;2024-03-08T03:27:35;30.60;;;16.10;;
84840;SDS011;75088;53.114;18.040;2024-03-08T03:28:43;29.20;;;15.90;;
84840;SDS011;75088;53.114;18.040;2024-03-08T03:29:52;25.50;;;15.10;;
84840;SDS011;75088;53.114;18.040;2024-03-08T03:30:59;27.60;;;15.40;;
84840;SDS011;75088;53.114;18.040;2024-03-08T03:32:06;29.60;;;15.50;;
84840;SDS011;75088;53.114;18.040;2024-03-08T03:33:13;29.10;;;16.30;;
84840;SDS011;75088;53.114;18.040;2024-03-08T03:34:23;26.80;;;15.30;;
84840;SDS011;75088;53.114;18.040;2024-03-08T03:35:30;29.70;;;15.80;;
84840;SDS011;75088;53.114;18.040;2024-03-08T03:36:38;30.50;;;15.70;;
84840;SDS011;75088;53.114;18.040;2024-03-08T03:37:46;29.60;;;16.20;;
84840;SDS011;75088;53.114;18.040;2024-03-08T03:39:05;30.30;;;15.70;;
84840;SDS011;75088;53.114;18.040;2024-03-08T03:40:16;30.00;;;14.70;;
84840;SDS011;75088;53.114;18.040;2024-03-08T03:41:24;29.20;;;16.20;;
84840;SDS011;75088;53.114;18.040;2024-03-08T03:42:31;32.60;;;18.40;;
84840;SDS011;75088;53.114;18.040;2024-03-08T03:43:38;36.20;;;23.10;;
84840;SDS011;75088;53.114;18.040;2024-03-08T03:44:45;39.40;;;22.30;;
84840;SDS011;75088;53.114;18.040;2024-03-08T03:45:56;42.90;;;24.70;;
84840;SDS011;75088;53.114;18.040;2024-03-08T03:47:02;43.50;;;26.00;;
84840;SDS011;75088;53.114;18.040;2024-03-08T03:48:11;42.30;;;23.90;;
84840;SDS011;75088;53.114;18.040;2024-03-08T03:49:18;58.10;;;29.70;;
84840;SDS011;75088;53.114;18.040;2024-03-08T03:50:28;50.90;;;28.50;;
84840;SDS011;75088;53.114;18.040;2024-03-08T03:51:35;46.70;;;29.00;;
84840;SDS011;75088;53.114;18.040;2024-03-08T03:52:41;52.80;;;30.90;;
84840;SDS011;75088;53.114;18.040;2024-03-08T03:53:48;66.00;;;36.90;;
84840;SDS011;75088;53.114;18.040;2024-03-08T03:54:57;64.30;;;36.70;;
84840;SDS011;75088;53.114;18.040;2024-03-08T03:56:04;55.70;;;30.80;;
84840;SDS011;75088;53.114;18.040;2024-03-08T03:57:11;51.10;;;28.10;;
84840;SDS011;75088;53.114;18.040;2024-03-08T03:58:18;47.90;;;25.90;;
84840;SDS011;75088;53.114;18.040;2024-03-08T03:59:26;47.00;;;25.20;;
84840;SDS011;75088;53.114;18.040;2024-03-08T04:00:34;45.00;;;24.80;;
84840;SDS011;75088;53.114;18.040;2024-03-08T04:01:43;41.20;;;24.10;;
84840;SDS011;75088;53.114;18.040;2024-03-08T04:02:50;42.70;;;23.20;;
84840;SDS011;75088;53.114;18.040;2024-03-08T04:03:56;43.60;;;22.70;;
84840;SDS011;75088;53.114;18.040;2024-03-08T04:05:03;39.50;;;23.20;;
84840;SDS011;75088;53.114;18.040;2024-03-08T04:06:12;39.40;;;22.10;;
84840;SDS011;75088;53.114;18.040;2024-03-08T04:07:19;40.80;;;23.10;;
84840;SDS011;75088;53.114;18.040;2024-03-08T04:08:26;38.30;;;21.60;;
84840;SDS011;75088;53.114;18.040;2024-03-08T04:09:33;37.90;;;20.30;;
84840;SDS011;75088;53.114;18.040;2024-03-08T04:10:41;37.00;;;20.90;;
84840;SDS011;75088;53.114;18.040;2024-03-08T04:11:48;34.00;;;19.70;;
84840;SDS011;75088;53.114;18.040;2024-03-08T04:12:59;39.80;;;19.60;;
84840;SDS011;75088;53.114;18.040;2024-03-08T04:14:07;33.60;;;18.90;;
84840;SDS011;75088;53.114;18.040;2024-03-08T04:15:15;35.60;;;19.20;;
84840;SDS011;75088;53.114;18.040;2024-03-08T04:16:21;38.40;;;21.50;;
84840;SDS011;75088;53.114;18.040;2024-03-08T04:17:30;35.50;;;20.00;;
84840;SDS011;75088;53.114;18.040;2024-03-08T04:18:37;34.60;;;21.50;;
84840;SDS011;75088;53.114;18.040;2024-03-08T04:19:44;35.90;;;19.30;;
84840;SDS011;75088;53.114;18.040;2024-03-08T04:20:53;34.30;;;18.70;;
84840;SDS011;75088;53.114;18.040;2024-03-08T04:22:00;34.10;;;17.80;;
84840;SDS011;75088;53.114;18.040;2024-03-08T04:23:08;31.50;;;17.70;;
84840;SDS011;75088;53.114;18.040;2024-03-08T04:24:15;31.30;;;17.70;;
84840;SDS011;75088;53.114;18.040;2024-03-08T04:25:22;32.80;;;16.90;;
84840;SDS011;75088;53.114;18.040;2024-03-08T04:26:29;36.10;;;18.30;;
84840;SDS011;75088;53.114;18.040;2024-03-08T04:27:36;34.30;;;18.90;;
84840;SDS011;75088;53.114;18.040;2024-03-08T04:28:44;33.70;;;17.00;;
84840;SDS011;75088;53.114;18.040;2024-03-08T04:29:52;36.70;;;20.00;;
84840;SDS011;75088;53.114;18.040;2024-03-08T04:31:00;32.70;;;17.80;;
84840;SDS011;75088;53.114;18.040;2024-03-08T04:32:09;40.00;;;19.70;;
84840;SDS011;75088;53.114;18.040;2024-03-08T04:33:17;40.90;;;20.30;;
84840;SDS011;75088;53.114;18.040;2024-03-08T04:34:25;44.60;;;20.90;;
84840;SDS011;75088;53.114;18.040;2024-03-08T04:35:33;59.60;;;24.90;;
84840;SDS011;75088;53.114;18.040;2024-03-08T04:36:39;54.40;;;22.90;;
84840;SDS011;75088;53.114;18.040;2024-03-08T04:37:46;53.90;;;22.60;;
84840;SDS011;75088;53.114;18.040;2024-03-08T04:38:55;52.70;;;25.10;;
84840;SDS011;75088;53.114;18.040;2024-03-08T04:40:03;57.50;;;25.40;;
84840;SDS011;75088;53.114;18.040;2024-03-08T04:41:11;62.40;;;25.10;;
84840;SDS011;75088;53.114;18.040;2024-03-08T04:42:18;70.40;;;27.80;;
84840;SDS011;75088;53.114;18.040;2024-03-08T04:43:25;81.60;;;31.50;;
84840;SDS011;75088;53.114;18.040;2024-03-08T04:44:34;75.90;;;31.50;;
84840;SDS011;75088;53.114;18.040;2024-03-08T04:45:41;76.90;;;28.20;;
84840;SDS011;75088;53.114;18.040;2024-03-08T04:46:48;60.20;;;26.00;;
84840;SDS011;75088;53.114;18.040;2024-03-08T04:47:55;79.80;;;30.20;;
84840;SDS011;75088;53.114;18.040;2024-03-08T04:49:02;76.80;;;29.70;;
84840;SDS011;75088;53.114;18.040;2024-03-08T04:50:09;80.10;;;30.30;;
84840;SDS011;75088;53.114;18.040;2024-03-08T04:51:16;79.70;;;29.00;;
84840;SDS011;75088;53.114;18.040;2024-03-08T04:52:25;78.50;;;29.30;;
84840;SDS011;75088;53.114;18.040;2024-03-08T04:53:32;71.60;;;28.30;;
84840;SDS011;75088;53.114;18.040;2024-03-08T04:54:39;75.50;;;28.30;;
84840;SDS011;75088;53.114;18.040;2024-03-08T04:55:46;74.70;;;27.40;;
84840;SDS011;75088;53.114;18.040;2024-03-08T04:56:53;70.90;;;26.60;;
84840;SDS011;75088;53.114;18.040;2024-03-08T04:57:59;71.10;;;28.60;;
84840;SDS011;75088;53.114;18.040;2024-03-08T04:59:08;71.60;;;26.90;;
84840;SDS011;75088;53.114;18.040;2024-03-08T05:00:16;65.50;;;24.90;;
84840;SDS011;75088;53.114;18.040;2024-03-08T05:01:23;58.70;;;25.20;;
84840;SDS011;75088;53.114;18.040;2024-03-08T05:02:30;59.30;;;24.90;;
84840;SDS011;75088;53.114;18.040;2024-03-08T05:03:37;54.80;;;23.60;;
84840;SDS011;75088;53.114;18.040;2024-03-08T05:04:44;53.10;;;22.60;;
84840;SDS011;75088;53.114;18.040;2024-03-08T05:05:51;57.50;;;24.20;;
84840;SDS011;75088;53.114;18.040;2024-03-08T05:07:01;51.00;;;23.90;;
84840;SDS011;75088;53.114;18.040;2024-03-08T05:08:08;54.80;;;26.50;;
84840;SDS011;75088;53.114;18.040;2024-03-08T05:09:15;53.50;;;24.10;;
84840;SDS011;75088;53.114;18.040;2024-03-08T05:10:23;53.90;;;23.60;;
84840;SDS011;75088;53.114;18.040;2024-03-08T05:11:30;59.40;;;24.80;;
84840;SDS011;75088;53.114;18.040;2024-03-08T05:12:37;55.40;;;24.50;;
84840;SDS011;75088;53.114;18.040;2024-03-08T05:13:44;61.70;;;28.10;;
84840;SDS011;75088;53.114;18.040;2024-03-08T05:14:51;56.30;;;25.20;;
84840;SDS011;75088;53.114;18.040;2024-03-08T05:15:59;66.50;;;26.40;;
84840;SDS011;75088;53.114;18.040;2024-03-08T05:17:06;57.10;;;24.20;;
84840;SDS011;75088;53.114;18.040;2024-03-08T05:18:14;61.20;;;25.40;;
84840;SDS011;75088;53.114;18.040;2024-03-08T05:19:21;59.50;;;24.60;;
84840;SDS011;75088;53.114;18.040;2024-03-08T05:20:34;63.70;;;25.20;;
84840;SDS011;75088;53.114;18.040;2024-03-08T05:21:41;68.20;;;25.70;;
84840;SDS011;75088;53.114;18.040;2024-03-08T05:22:48;57.70;;;25.00;;
84840;SDS011;75088;53.114;18.040;2024-03-08T05:23:58;60.20;;;23.90;;
84840;SDS011;75088;53.114;18.040;2024-03-08T05:25:05;59.60;;;26.20;;
84840;SDS011;75088;53.114;18.040;2024-03-08T05:26:13;63.20;;;25.60;;
84840;SDS011;75088;53.114;18.040;2024-03-08T05:27:20;68.00;;;25.40;;
84840;SDS011;75088;53.114;18.040;2024-03-08T05:28:28;61.70;;;26.00;;
84840;SDS011;75088;53.114;18.040;2024-03-08T05:29:35;67.00;;;25.30;;
84840;SDS011;75088;53.114;18.040;2024-03-08T05:30:43;67.80;;;26.10;;
84840;SDS011;75088;53.114;18.040;2024-03-08T05:31:50;67.00;;;29.10;;
84840;SDS011;75088;53.114;18.040;2024-03-08T05:32:57;69.70;;;25.80;;
84840;SDS011;75088;53.114;18.040;2024-03-08T05:34:04;64.80;;;25.70;;
84840;SDS011;75088;53.114;18.040;2024-03-08T05:35:14;70.10;;;27.10;;
84840;SDS011;75088;53.114;18.040;2024-03-08T05:36:21;68.10;;;26.20;;
84840;SDS011;75088;53.114;18.040;2024-03-08T05:37:31;64.40;;;28.50;;
84840;SDS011;75088;53.114;18.040;2024-03-08T05:38:37;70.90;;;25.90;;
84840;SDS011;75088;53.114;18.040;2024-03-08T05:39:45;71.20;;;26.00;;
84840;SDS011;75088;53.114;18.040;2024-03-08T05:40:52;69.00;;;27.70;;
84840;SDS011;75088;53.114;18.040;2024-03-08T05:41:59;58.40;;;28.20;;
84840;SDS011;75088;53.114;18.040;2024-03-08T05:43:06;62.50;;;26.60;;
84840;SDS011;75088;53.114;18.040;2024-03-08T05:44:13;64.30;;;29.60;;
84840;SDS011;75088;53.114;18.040;2024-03-08T05:45:21;70.10;;;30.10;;
84840;SDS011;75088;53.114;18.040;2024-03-08T05:46:29;64.50;;;27.20;;
84840;SDS011;75088;53.114;18.040;2024-03-08T05:47:36;65.50;;;29.30;;
84840;SDS011;75088;53.114;18.040;2024-03-08T05:48:44;71.80;;;32.20;;
84840;SDS011;75088;53.114;18.040;2024-03-08T05:49:51;62.60;;;27.70;;
84840;SDS011;75088;53.114;18.040;2024-03-08T05:50:59;67.60;;;30.40;;
84840;SDS011;75088;53.114;18.040;2024-03-08T05:52:06;70.20;;;30.20;;
84840;SDS011;75088;53.114;18.040;2024-03-08T05:53:13;74.60;;;30.90;;
84840;SDS011;75088;53.114;18.040;2024-03-08T05:54:20;73.00;;;30.70;;
84840;SDS011;75088;53.114;18.040;2024-03-08T05:55:28;74.40;;;34.10;;
84840;SDS011;75088;53.114;18.040;2024-03-08T05:56:39;74.80;;;32.20;;
84840;SDS011;75088;53.114;18.040;2024-03-08T05:57:47;64.50;;;29.90;;
84840;SDS011;75088;53.114;18.040;2024-03-08T05:58:54;72.60;;;31.30;;
84840;SDS011;75088;53.114;18.040;2024-03-08T06:00:02;87.10;;;35.40;;
84840;SDS011;75088;53.114;18.040;2024-03-08T06:01:10;74.20;;;32.10;;
84840;SDS011;75088;53.114;18.040;2024-03-08T06:02:16;79.80;;;33.00;;
84840;SDS011;75088;53.114;18.040;2024-03-08T06:03:25;87.50;;;35.70;;
84840;SDS011;75088;53.114;18.040;2024-03-08T06:04:32;78.60;;;33.60;;
84840;SDS011;75088;53.114;18.040;2024-03-08T06:05:39;75.50;;;36.10;;
84840;SDS011;75088;53.114;18.040;2024-03-08T06:06:46;73.80;;;30.00;;
84840;SDS011;75088;53.114;18.040;2024-03-08T06:09:03;68.20;;;28.70;;
84840;SDS011;75088;53.114;18.040;2024-03-08T06:10:15;81.20;;;32.80;;
84840;SDS011;75088;53.114;18.040;2024-03-08T06:11:23;71.90;;;30.30;;
84840;SDS011;75088;53.114;18.040;2024-03-08T06:12:32;73.00;;;30.90;;
84840;SDS011;75088;53.114;18.040;2024-03-08T06:13:44;69.90;;;29.90;;
84840;SDS011;75088;53.114;18.040;2024-03-08T06:14:51;66.30;;;32.30;;
84840;SDS011;75088;53.114;18.040;2024-03-08T06:15:58;69.80;;;29.30;;
84840;SDS011;75088;53.114;18.040;2024-03-08T06:17:08;58.90;;;26.30;;
84840;SDS011;75088;53.114;18.040;2024-03-08T06:18:15;55.10;;;27.00;;
84840;SDS011;75088;53.114;18.040;2024-03-08T06:19:22;52.40;;;23.30;;
84840;SDS011;75088;53.114;18.040;2024-03-08T06:20:29;62.10;;;25.90;;
84840;SDS011;75088;53.114;18.040;2024-03-08T06:21:36;51.00;;;24.70;;
84840;SDS011;75088;53.114;18.040;2024-03-08T06:22:43;51.90;;;24.70;;
84840;SDS011;75088;53.114;18.040;2024-03-08T06:23:50;54.90;;;24.60;;
84840;SDS011;75088;53.114;18.040;2024-03-08T06:24:58;52.20;;;26.10;;
84840;SDS011;75088;53.114;18.040;2024-03-08T06:26:05;48.70;;;23.90;;
84840;SDS011;75088;53.114;18.040;2024-03-08T06:27:12;51.50;;;26.80;;
84840;SDS011;75088;53.114;18.040;2024-03-08T06:28:19;48.30;;;23.50;;
84840;SDS011;75088;53.114;18.040;2024-03-08T06:29:26;53.40;;;23.10;;
84840;SDS011;75088;53.114;18.040;2024-03-08T06:30:33;53.20;;;24.20;;
84840;SDS011;75088;53.114;18.040;2024-03-08T06:31:40;50.50;;;26.30;;